Time;durP1;ratioP1;P1;durP2;ratioP2;P2;SDS_P1;SDS_P2;PMS_P1;PMS_P2;Temp;Humidity;BMP_temperature;BMP_pressure;BME280_temperature;BME280_humidity;BME280_pressure;Samples;Min_cycle;Max_cycle;Signal;HPM_P1;HPM_P2
2022/09/05 00:01:03;;;;;;;5.50;5.00;;;;;;;;;;10134982;28;20122;-70
2022/09/05 00:06:01;;;;;;;5.05;4.55;;;;;;;;;;10117003;28;20049;-71
2022/09/05 00:11:16;;;;;;;8.25;5.28;;;;;;;;;;10125059;28;20102;-70
2022/09/05 00:16:51;;;;;;;7.03;5.18;;;;;;;;;;10117196;28;20479;-70
2022/09/05 00:22:05;;;;;;;6.18;5.57;;;;;;;;;;10118022;28;20404;-70
2022/09/05 00:27:26;;;;;;;7.18;5.35;;;;;;;;;;10106107;28;20144;-70
2022/09/05 00:32:33;;;;;;;7.85;5.85;;;;;;;;;;10129724;28;20076;-70
2022/09/05 00:37:39;;;;;;;5.45;4.95;;;;;;;;;;10118595;28;20127;-71
2022/09/05 00:42:34;;;;;;;17.75;8.07;;;;;;;;;;10101059;28;20043;-70
2022/09/05 00:47:45;;;;;;;6.22;5.18;;;;;;;;;;10121121;28;20072;-71
2022/09/05 00:52:56;;;;;;;6.03;5.50;;;;;;;;;;10124595;28;20045;-71
2022/09/05 00:58:18;;;;;;;9.20;6.22;;;;;;;;;;10108738;28;20111;-71
2022/09/05 01:03:33;;;;;;;9.10;6.20;;;;;;;;;;10112408;28;20122;-70
2022/09/05 01:08:30;;;;;;;8.88;6.18;;;;;;;;;;10114325;28;20076;-70
2022/09/05 01:13:35;;;;;;;7.07;6.43;;;;;;;;;;10115371;28;20403;-70
2022/09/05 01:18:52;;;;;;;8.02;5.95;;;;;;;;;;10107842;28;20062;-70
2022/09/05 01:24:19;;;;;;;9.55;7.10;;;;;;;;;;10110393;28;20049;-70
2022/09/05 01:29:49;;;;;;;8.50;6.57;;;;;;;;;;10109008;28;20508;-70
2022/09/05 01:35:04;;;;;;;7.05;6.25;;;;;;;;;;10091535;28;20076;-71
2022/09/05 01:40:06;;;;;;;7.20;6.60;;;;;;;;;;10111636;28;20388;-70
2022/09/05 01:45:38;;;;;;;6.88;6.15;;;;;;;;;;10115742;28;20049;-70
2022/09/05 01:50:55;;;;;;;7.03;6.40;;;;;;;;;;10115894;28;20053;-70
2022/09/05 01:56:12;;;;;;;6.35;5.82;;;;;;;;;;10097149;28;20060;-70
2022/09/05 02:01:32;;;;;;;5.68;5.22;;;;;;;;;;10117744;28;20056;-70
2022/09/05 02:06:41;;;;;;;5.53;5.03;;;;;;;;;;10096487;28;20060;-70
2022/09/05 02:11:55;;;;;;;8.57;5.75;;;;;;;;;;10077897;28;20146;-70
2022/09/05 02:16:49;;;;;;;6.65;5.95;;;;;;;;;;10077553;28;20060;-70
2022/09/05 02:22:10;;;;;;;8.13;5.18;;;;;;;;;;10095312;28;20484;-70
2022/09/05 02:27:29;;;;;;;5.47;4.97;;;;;;;;;;10094006;28;20102;-70
2022/09/05 02:32:57;;;;;;;6.73;4.53;;;;;;;;;;10087280;28;20131;-70
2022/09/05 02:38:17;;;;;;;5.47;4.65;;;;;;;;;;10102798;28;20127;-70
2022/09/05 02:43:37;;;;;;;9.30;4.70;;;;;;;;;;10102823;28;20045;-71
2022/09/05 02:49:16;;;;;;;5.22;4.80;;;;;;;;;;10108968;28;20698;-70
2022/09/05 02:54:32;;;;;;;8.38;5.50;;;;;;;;;;10119520;28;20082;-70
2022/09/05 03:00:00;;;;;;;8.02;4.97;;;;;;;;;;10122763;28;20033;-70
2022/09/05 03:05:00;;;;;;;9.80;4.63;;;;;;;;;;10130398;28;20048;-70
2022/09/05 03:10:24;;;;;;;6.07;4.75;;;;;;;;;;10127782;28;20053;-70
2022/09/05 03:15:39;;;;;;;8.23;5.60;;;;;;;;;;10133161;28;20033;-72
2022/09/05 03:20:54;;;;;;;6.07;4.80;;;;;;;;;;10133250;28;20063;-70
2022/09/05 03:26:31;;;;;;;9.83;5.87;;;;;;;;;;10129900;28;20132;-70
2022/09/05 03:31:59;;;;;;;5.88;5.22;;;;;;;;;;10131440;28;20057;-70
2022/09/05 03:37:08;;;;;;;5.25;4.75;;;;;;;;;;10119968;28;20052;-70
2022/09/05 03:42:30;;;;;;;6.22;5.50;;;;;;;;;;10127710;28;20045;-70
2022/09/05 03:47:35;;;;;;;6.88;4.82;;;;;;;;;;10106994;28;20053;-70
2022/09/05 03:52:50;;;;;;;5.60;5.00;;;;;;;;;;10121298;28;20050;-70
2022/09/05 03:58:25;;;;;;;15.05;6.18;;;;;;;;;;10103941;28;20055;-70
2022/09/05 04:03:43;;;;;;;7.97;5.65;;;;;;;;;;10111131;28;20120;-70
2022/09/05 04:09:08;;;;;;;6.68;6.10;;;;;;;;;;10104362;28;20510;-70
2022/09/05 04:14:36;;;;;;;10.65;6.70;;;;;;;;;;10109381;28;20550;-70
2022/09/05 04:19:35;;;;;;;7.18;6.05;;;;;;;;;;10085020;28;20546;-70
2022/09/05 04:24:32;;;;;;;8.20;7.40;;;;;;;;;;10130108;28;20564;-70
2022/09/05 04:29:36;;;;;;;8.30;7.60;;;;;;;;;;10129457;28;20388;-70
2022/09/05 04:34:54;;;;;;;7.93;7.22;;;;;;;;;;10133560;28;20044;-70
2022/09/05 04:39:48;;;;;;;8.18;7.25;;;;;;;;;;10108452;28;20048;-70
2022/09/05 04:45:07;;;;;;;8.75;7.90;;;;;;;;;;10120518;28;20098;-70
2022/09/05 04:50:29;;;;;;;9.43;8.15;;;;;;;;;;10113814;28;20045;-70
2022/09/05 04:55:38;;;;;;;9.35;8.48;;;;;;;;;;10050108;28;20080;-69
2022/09/05 05:01:05;;;;;;;13.85;8.68;;;;;;;;;;10127573;28;20492;-64
2022/09/05 05:06:25;;;;;;;11.93;9.38;;;;;;;;;;10101163;28;20045;-63
2022/09/05 05:11:43;;;;;;;10.23;8.18;;;;;;;;;;10102672;28;20055;-63
2022/09/05 05:17:07;;;;;;;14.13;8.73;;;;;;;;;;10110494;28;20524;-64
2022/09/05 05:22:21;;;;;;;8.77;7.97;;;;;;;;;;10108276;28;20437;-61
2022/09/05 05:27:14;;;;;;;15.45;8.85;;;;;;;;;;10120775;28;20049;-63
2022/09/05 05:32:42;;;;;;;17.30;9.55;;;;;;;;;;10122572;28;20463;-62
2022/09/05 05:38:05;;;;;;;13.63;10.13;;;;;;;;;;10106461;28;20052;-63
2022/09/05 05:43:21;;;;;;;13.25;8.48;;;;;;;;;;10097792;28;20522;-64
2022/09/05 05:48:17;;;;;;;10.25;8.25;;;;;;;;;;10094825;28;20052;-63
2022/09/05 05:53:31;;;;;;;8.90;8.02;;;;;;;;;;10096221;28;20047;-64
2022/09/05 05:58:51;;;;;;;10.00;8.98;;;;;;;;;;10112619;28;20045;-63
2022/09/05 06:04:23;;;;;;;11.75;8.50;;;;;;;;;;10116169;28;20098;-62
2022/09/05 06:09:50;;;;;;;10.35;9.25;;;;;;;;;;10032793;28;20060;-62
2022/09/05 06:15:24;;;;;;;12.57;7.93;;;;;;;;;;10127698;28;20040;-62
2022/09/05 06:20:48;;;;;;;12.02;8.15;;;;;;;;;;10104178;28;20106;-62
2022/09/05 06:26:01;;;;;;;8.68;7.97;;;;;;;;;;10122485;28;20045;-65
2022/09/05 06:31:17;;;;;;;10.13;8.88;;;;;;;;;;10122800;28;20061;-64
2022/09/05 06:36:51;;;;;;;10.32;9.23;;;;;;;;;;10121713;28;20048;-64
2022/09/05 06:42:15;;;;;;;18.67;10.45;;;;;;;;;;10094731;28;20045;-64
2022/09/05 06:47:31;;;;;;;10.95;9.90;;;;;;;;;;10116021;28;20056;-64
2022/09/05 06:52:41;;;;;;;11.57;8.98;;;;;;;;;;10114492;28;20514;-64
2022/09/05 06:58:04;;;;;;;11.77;10.60;;;;;;;;;;10113683;28;20455;-66
2022/09/05 07:03:17;;;;;;;14.63;10.25;;;;;;;;;;10101309;28;20045;-67
2022/09/05 07:08:22;;;;;;;12.93;9.60;;;;;;;;;;10109256;28;20514;-62
2022/09/05 07:13:39;;;;;;;10.75;9.75;;;;;;;;;;10092108;28;20050;-61
2022/09/05 07:18:44;;;;;;;13.38;9.95;;;;;;;;;;10117366;28;20060;-62
2022/09/05 07:24:11;;;;;;;11.13;9.93;;;;;;;;;;10107603;28;20037;-62
2022/09/05 07:29:06;;;;;;;8.70;7.85;;;;;;;;;;10116453;28;20114;-61
2022/09/05 07:34:16;;;;;;;8.57;7.20;;;;;;;;;;10111303;28;20051;-61
2022/09/05 07:39:17;;;;;;;15.05;9.57;;;;;;;;;;10107891;28;20052;-62
2022/09/05 07:44:26;;;;;;;16.00;9.98;;;;;;;;;;10078923;28;20065;-61
2022/09/05 07:49:22;;;;;;;12.20;9.98;;;;;;;;;;10096810;28;20076;-61
2022/09/05 07:54:19;;;;;;;7.82;7.13;;;;;;;;;;10109611;28;20040;-63
2022/09/05 07:59:35;;;;;;;13.70;5.87;;;;;;;;;;10113180;28;20592;-63
2022/09/05 08:04:31;;;;;;;8.23;4.25;;;;;;;;;;10117013;28;20045;-63
2022/09/05 08:09:49;;;;;;;10.00;3.80;;;;;;;;;;10125402;28;20048;-63
2022/09/05 08:15:21;;;;;;;9.50;3.97;;;;;;;;;;10117524;28;20106;-63
2022/09/05 08:20:46;;;;;;;10.35;3.33;;;;;;;;;;10119898;28;20142;-63
2022/09/05 08:26:19;;;;;;;8.40;3.03;;;;;;;;;;10127529;28;20052;-63
2022/09/05 08:31:18;;;;;;;11.93;3.58;;;;;;;;;;10125259;28;20127;-63
2022/09/05 08:36:41;;;;;;;10.70;3.88;;;;;;;;;;10095636;28;20075;-63
2022/09/05 08:41:55;;;;;;;10.65;4.78;;;;;;;;;;10091752;28;20420;-63
2022/09/05 08:47:17;;;;;;;5.25;3.38;;;;;;;;;;10108267;28;20453;-63
2022/09/05 08:52:45;;;;;;;6.85;3.75;;;;;;;;;;10100802;28;20136;-63
2022/09/05 08:57:44;;;;;;;4.70;3.03;;;;;;;;;;10113063;28;20106;-63
2022/09/05 09:02:56;;;;;;;5.80;3.00;;;;;;;;;;10111753;28;20411;-64
2022/09/05 09:08:14;;;;;;;7.38;2.55;;;;;;;;;;10121523;28;20067;-63
2022/09/05 09:13:11;;;;;;;9.02;2.40;;;;;;;;;;10132681;28;20492;-61
2022/09/05 09:18:14;;;;;;;6.38;2.53;;;;;;;;;;10123597;28;20106;-65
2022/09/05 09:23:34;;;;;;;7.88;2.63;;;;;;;;;;10120629;28;20076;-64
2022/09/05 09:28:42;;;;;;;8.15;2.35;;;;;;;;;;10124959;28;20056;-62
2022/09/05 09:34:04;;;;;;;3.38;2.13;;;;;;;;;;10118272;28;20053;-61
2022/09/05 09:39:24;;;;;;;5.65;2.22;;;;;;;;;;10115266;28;20044;-61
2022/09/05 09:45:15;;;;;;;3.05;1.52;;;;;;;;;;10104412;28;20551;-62
2022/09/05 09:50:31;;;;;;;2.35;1.80;;;;;;;;;;10100160;28;20052;-62
2022/09/05 09:55:49;;;;;;;4.25;1.40;;;;;;;;;;10103573;28;20045;-62
2022/09/05 10:00:50;;;;;;;3.07;1.80;;;;;;;;;;10115169;28;20400;-62
2022/09/05 10:05:48;;;;;;;2.75;1.77;;;;;;;;;;10119056;28;20053;-62
2022/09/05 10:11:23;;;;;;;2.00;1.30;;;;;;;;;;10123270;28;20507;-61
2022/09/05 10:17:13;;;;;;;3.22;1.35;;;;;;;;;;10117713;28;20041;-62
2022/09/05 10:22:22;;;;;;;3.35;1.17;;;;;;;;;;10116713;28;20459;-62
2022/09/05 10:27:51;;;;;;;2.10;1.40;;;;;;;;;;10121461;28;20049;-61
2022/09/05 10:33:11;;;;;;;3.05;1.60;;;;;;;;;;10123216;28;20060;-61
2022/09/05 10:38:33;;;;;;;5.25;1.52;;;;;;;;;;10101708;28;20127;-64
2022/09/05 10:43:29;;;;;;;4.00;1.50;;;;;;;;;;10109067;28;20056;-61
2022/09/05 10:48:50;;;;;;;5.63;1.55;;;;;;;;;;10109456;28;20565;-62
2022/09/05 10:54:24;;;;;;;4.47;1.40;;;;;;;;;;10110064;28;20053;-61
2022/09/05 10:59:23;;;;;;;6.55;1.30;;;;;;;;;;10113325;28;20053;-62
2022/09/05 11:05:03;;;;;;;3.78;1.20;;;;;;;;;;10114847;28;20447;-66
2022/09/05 11:10:21;;;;;;;2.65;1.52;;;;;;;;;;10110965;28;20525;-62
2022/09/05 11:15:31;;;;;;;2.67;1.30;;;;;;;;;;10110360;28;20412;-62
2022/09/05 11:20:38;;;;;;;2.90;1.80;;;;;;;;;;10112375;28;20058;-61
2022/09/05 11:25:38;;;;;;;5.65;2.45;;;;;;;;;;10123689;28;20482;-61
2022/09/05 11:30:39;;;;;;;2.78;1.38;;;;;;;;;;10124572;28;20056;-62
2022/09/05 11:35:44;;;;;;;4.15;3.45;;;;;;;;;;10100744;28;20065;-61
2022/09/05 11:41:47;;;;;;;8.50;1.98;;;;;;;;;;10113206;28;20133;-62
2022/09/05 11:47:01;;;;;;;4.40;1.60;;;;;;;;;;10079668;28;20045;-62
2022/09/05 11:52:52;;;;;;;4.45;1.70;;;;;;;;;;10119629;28;20052;-61
2022/09/05 11:58:04;;;;;;;2.03;1.20;;;;;;;;;;10129695;28;20263;-61
2022/09/05 12:03:35;;;;;;;2.60;1.33;;;;;;;;;;10131530;28;20045;-61
2022/09/05 12:09:09;;;;;;;5.25;1.88;;;;;;;;;;10109242;28;20048;-61
2022/09/05 12:14:31;;;;;;;6.27;1.37;;;;;;;;;;10140573;28;20045;-61
2022/09/05 12:20:07;;;;;;;1.85;1.38;;;;;;;;;;10127619;28;20052;-61
2022/09/05 12:25:22;;;;;;;2.30;1.30;;;;;;;;;;10120182;28;20078;-61
2022/09/05 12:30:36;;;;;;;5.03;1.15;;;;;;;;;;10114701;28;20082;-62
2022/09/05 12:35:56;;;;;;;3.90;1.35;;;;;;;;;;10115362;28;20503;-61
2022/09/05 12:41:19;;;;;;;5.85;1.25;;;;;;;;;;10097390;28;20079;-61
2022/09/05 12:46:44;;;;;;;9.18;2.40;;;;;;;;;;10105815;28;20037;-61
2022/09/05 12:52:15;;;;;;;5.55;1.20;;;;;;;;;;10113566;28;20071;-62
2022/09/05 12:57:32;;;;;;;1.27;1.02;;;;;;;;;;10121231;28;20060;-62
2022/09/05 13:02:52;;;;;;;7.00;1.40;;;;;;;;;;10096457;28;20119;-62
2022/09/05 13:08:12;;;;;;;3.72;1.00;;;;;;;;;;10102705;28;20049;-62
2022/09/05 13:13:35;;;;;;;3.28;1.38;;;;;;;;;;10100591;28;20067;-62
2022/09/05 13:18:54;;;;;;;3.08;1.17;;;;;;;;;;10102885;28;20080;-62
2022/09/05 13:24:00;;;;;;;6.63;2.50;;;;;;;;;;10129381;28;20545;-62
2022/09/05 13:29:03;;;;;;;1.67;1.05;;;;;;;;;;10112762;28;20491;-62
2022/09/05 13:34:10;;;;;;;2.63;1.38;;;;;;;;;;10125819;28;20095;-62
2022/09/05 13:39:27;;;;;;;4.32;1.60;;;;;;;;;;10131736;28;20045;-62
2022/09/05 13:44:21;;;;;;;5.97;1.55;;;;;;;;;;10121438;28;20067;-62
2022/09/05 13:49:26;;;;;;;2.00;1.45;;;;;;;;;;10117002;28;20079;-62
2022/09/05 13:54:49;;;;;;;4.10;1.10;;;;;;;;;;10110927;28;20117;-61
2022/09/05 14:00:14;;;;;;;5.65;1.50;;;;;;;;;;10108131;28;20047;-61
2022/09/05 14:05:30;;;;;;;2.42;1.35;;;;;;;;;;10107883;28;20048;-62
2022/09/05 14:10:43;;;;;;;3.55;1.38;;;;;;;;;;10119652;28;20061;-62
2022/09/05 14:15:48;;;;;;;2.15;1.33;;;;;;;;;;10115367;28;20041;-62
2022/09/05 14:21:16;;;;;;;4.82;1.35;;;;;;;;;;10118382;28;20127;-62
2022/09/05 14:26:17;;;;;;;7.35;1.52;;;;;;;;;;10119939;28;20041;-63
2022/09/05 14:31:12;;;;;;;2.63;1.55;;;;;;;;;;10123094;28;20060;-62
2022/09/05 14:36:40;;;;;;;2.47;1.97;;;;;;;;;;10127018;28;20068;-62
2022/09/05 14:42:14;;;;;;;6.22;1.50;;;;;;;;;;10129196;28;20530;-61
2022/09/05 14:47:39;;;;;;;3.10;1.50;;;;;;;;;;10124431;28;20051;-61
2022/09/05 14:52:34;;;;;;;3.95;1.70;;;;;;;;;;10102553;28;20518;-61
2022/09/05 14:57:39;;;;;;;3.92;1.95;;;;;;;;;;10123288;28;20053;-61
2022/09/05 15:02:53;;;;;;;;;;;;;;;;;;10113248;28;20132;-61
2022/09/05 15:08:21;;;;;;;2.80;1.58;;;;;;;;;;10122315;28;19921;-61
2022/09/05 15:13:37;;;;;;;;;;;;;;;;;;10121152;28;20567;-61
2022/09/05 15:18:44;;;;;;;4.82;2.13;;;;;;;;;;10128624;28;19974;-61
2022/09/05 15:23:40;;;;;;;3.10;1.88;;;;;;;;;;10108578;28;20395;-61
2022/09/05 15:28:47;;;;;;;6.80;2.00;;;;;;;;;;10119143;28;20053;-61
2022/09/05 15:33:48;;;;;;;2.20;1.65;;;;;;;;;;10105525;28;20099;-61
2022/09/05 15:38:41;;;;;;;7.35;1.77;;;;;;;;;;10126036;28;20056;-62
2022/09/05 15:44:07;;;;;;;5.63;1.75;;;;;;;;;;10123782;28;20053;-61
2022/09/05 15:49:22;;;;;;;2.95;1.85;;;;;;;;;;10124418;28;20496;-62
2022/09/05 15:54:29;;;;;;;3.47;1.50;;;;;;;;;;10110819;28;20045;-62
2022/09/05 15:59:45;;;;;;;4.43;2.13;;;;;;;;;;10094869;28;20151;-62
2022/09/05 16:04:50;;;;;;;5.05;2.13;;;;;;;;;;10095085;28;20095;-62
2022/09/05 16:10:06;;;;;;;3.95;1.80;;;;;;;;;;10089907;28;20049;-62
2022/09/05 16:15:21;;;;;;;6.35;2.42;;;;;;;;;;10086198;28;20061;-61
2022/09/05 16:20:56;;;;;;;6.05;2.15;;;;;;;;;;10089391;28;20505;-61
2022/09/05 16:26:17;;;;;;;7.50;2.22;;;;;;;;;;10099812;28;20030;-60
2022/09/05 16:31:32;;;;;;;4.13;2.00;;;;;;;;;;10104608;28;20564;-61
2022/09/05 16:36:34;;;;;;;3.50;2.58;;;;;;;;;;10107699;28;20045;-61
2022/09/05 16:41:37;;;;;;;4.32;2.15;;;;;;;;;;10084714;28;20436;-60
2022/09/05 16:47:05;;;;;;;5.25;1.70;;;;;;;;;;10088858;28;20053;-60
2022/09/05 16:52:08;;;;;;;2.93;2.43;;;;;;;;;;10100383;28;20148;-61
2022/09/05 16:57:31;;;;;;;5.60;1.85;;;;;;;;;;10099439;28;20774;-61
2022/09/05 17:02:43;;;;;;;2.10;1.65;;;;;;;;;;10099029;28;20041;-61
2022/09/05 17:07:42;;;;;;;6.85;2.67;;;;;;;;;;10107738;28;20040;-61
2022/09/05 17:12:37;;;;;;;10.52;3.47;;;;;;;;;;10102976;28;20411;-61
2022/09/05 17:17:47;;;;;;;5.03;2.33;;;;;;;;;;10107063;28;20059;-60
2022/09/05 17:23:07;;;;;;;5.20;2.53;;;;;;;;;;10094504;28;20041;-60
2022/09/05 17:28:42;;;;;;;7.78;2.25;;;;;;;;;;10106403;28;20048;-60
2022/09/05 17:34:00;;;;;;;10.15;2.90;;;;;;;;;;10110188;28;20418;-61
2022/09/05 17:39:33;;;;;;;3.03;2.00;;;;;;;;;;10122320;28;20087;-61
2022/09/05 17:44:53;;;;;;;5.40;2.42;;;;;;;;;;10097192;28;20056;-61
2022/09/05 17:49:49;;;;;;;3.28;2.33;;;;;;;;;;10122096;28;20049;-61
2022/09/05 17:54:51;;;;;;;17.35;2.60;;;;;;;;;;10113554;28;20068;-61
2022/09/05 17:59:44;;;;;;;17.48;2.78;;;;;;;;;;10108618;28;20091;-60
2022/09/05 18:04:51;;;;;;;17.17;3.38;;;;;;;;;;10123297;28;20453;-62
2022/09/05 18:09:56;;;;;;;20.45;4.47;;;;;;;;;;10120978;28;20487;-62
2022/09/05 18:15:31;;;;;;;16.98;3.30;;;;;;;;;;10123207;28;20048;-61
2022/09/05 18:20:37;;;;;;;10.00;3.55;;;;;;;;;;10111577;28;20055;-63
2022/09/05 18:25:38;;;;;;;14.32;3.33;;;;;;;;;;10125393;28;20045;-61
2022/09/05 18:30:34;;;;;;;10.93;3.10;;;;;;;;;;10136544;28;20052;-61
2022/09/05 18:35:44;;;;;;;7.03;2.90;;;;;;;;;;10141005;28;20080;-61
2022/09/05 18:41:03;;;;;;;8.30;2.47;;;;;;;;;;10124870;28;20045;-61
2022/09/05 18:46:03;;;;;;;6.93;2.45;;;;;;;;;;10149275;28;20406;-62
2022/09/05 18:51:12;;;;;;;3.08;2.75;;;;;;;;;;10118527;28;20102;-61
2022/09/05 18:56:35;;;;;;;5.03;3.38;;;;;;;;;;10117084;28;20053;-61
2022/09/05 19:01:55;;;;;;;5.13;2.40;;;;;;;;;;10139568;28;20491;-62
2022/09/05 19:06:50;;;;;;;3.15;2.20;;;;;;;;;;10143398;28;20082;-63
2022/09/05 19:11:53;;;;;;;3.30;2.28;;;;;;;;;;10146025;28;20442;-62
2022/09/05 19:16:48;;;;;;;5.03;2.25;;;;;;;;;;10148114;28;20058;-62
2022/09/05 19:21:45;;;;;;;6.28;2.40;;;;;;;;;;10139702;28;20563;-64
2022/09/05 19:26:48;;;;;;;4.40;2.15;;;;;;;;;;10135318;28;20463;-63
2022/09/05 19:32:08;;;;;;;5.80;2.80;;;;;;;;;;10122019;28;20080;-64
2022/09/05 19:37:22;;;;;;;4.25;2.55;;;;;;;;;;10129823;28;20458;-63
2022/09/05 19:42:34;;;;;;;2.63;2.42;;;;;;;;;;10118074;28;20499;-64
2022/09/05 19:47:49;;;;;;;2.30;2.10;;;;;;;;;;10088128;28;20075;-63
2022/09/05 19:53:04;;;;;;;3.28;2.00;;;;;;;;;;10108605;28;20411;-62
2022/09/05 19:57:58;;;;;;;4.50;2.00;;;;;;;;;;10109696;28;20412;-64
2022/09/05 20:03:20;;;;;;;2.58;1.88;;;;;;;;;;10096533;28;20052;-62
2022/09/05 20:08:13;;;;;;;3.17;2.35;;;;;;;;;;10106044;28;20044;-62
2022/09/05 20:13:21;;;;;;;3.55;2.72;;;;;;;;;;10093271;28;20048;-61
2022/09/05 20:18:19;;;;;;;8.45;1.83;;;;;;;;;;10108530;28;20495;-62
2022/09/05 20:23:14;;;;;;;3.67;2.15;;;;;;;;;;10098131;28;20522;-62
2022/09/05 20:28:12;;;;;;;2.95;2.20;;;;;;;;;;10100068;28;20479;-76
2022/09/05 20:33:19;;;;;;;3.75;2.00;;;;;;;;;;10103714;28;20099;-61
2022/09/05 20:38:35;;;;;;;3.93;1.83;;;;;;;;;;10108494;28;20063;-63
2022/09/05 20:43:56;;;;;;;4.28;2.33;;;;;;;;;;10098748;28;20326;-62
2022/09/05 20:48:50;;;;;;;4.68;2.72;;;;;;;;;;10111809;28;20060;-64
2022/09/05 20:54:05;;;;;;;5.53;2.65;;;;;;;;;;10107780;28;20083;-63
2022/09/05 20:59:29;;;;;;;2.60;2.03;;;;;;;;;;10108155;28;20505;-64
2022/09/05 21:04:31;;;;;;;3.15;2.00;;;;;;;;;;10091515;28;20117;-65
2022/09/05 21:09:28;;;;;;;3.35;1.80;;;;;;;;;;10105121;28;20128;-66
2022/09/05 21:14:23;;;;;;;2.40;2.08;;;;;;;;;;10113221;28;20063;-67
2022/09/05 21:19:27;;;;;;;8.25;2.33;;;;;;;;;;10113264;28;20053;-65
2022/09/05 21:24:23;;;;;;;5.05;2.05;;;;;;;;;;10109105;28;20088;-61
2022/09/05 21:29:24;;;;;;;3.25;2.05;;;;;;;;;;10113937;28;20041;-65
2022/09/05 21:34:34;;;;;;;4.32;2.80;;;;;;;;;;10110145;28;20120;-66
2022/09/05 21:39:45;;;;;;;2.03;1.85;;;;;;;;;;10082303;28;20048;-64
2022/09/05 21:44:53;;;;;;;7.65;2.30;;;;;;;;;;10108639;28;20060;-65
2022/09/05 21:50:09;;;;;;;3.65;3.05;;;;;;;;;;10109621;28;20048;-64
2022/09/05 21:55:34;;;;;;;2.78;2.30;;;;;;;;;;10111842;28;20048;-65
2022/09/05 22:00:50;;;;;;;3.25;2.40;;;;;;;;;;10097326;28;20504;-65
2022/09/05 22:05:44;;;;;;;3.40;2.42;;;;;;;;;;10109501;28;20037;-64
2022/09/05 22:10:38;;;;;;;3.35;2.78;;;;;;;;;;10095135;28;20102;-64
2022/09/05 22:15:47;;;;;;;3.70;2.63;;;;;;;;;;10096347;28;20496;-64
2022/09/05 22:20:40;;;;;;;11.32;2.42;;;;;;;;;;10113191;28;20044;-64
2022/09/05 22:25:34;;;;;;;2.78;2.17;;;;;;;;;;10111039;28;20055;-65
2022/09/05 22:30:28;;;;;;;9.15;3.00;;;;;;;;;;10116231;28;20447;-66
2022/09/05 22:35:21;;;;;;;2.65;2.45;;;;;;;;;;10110325;28;20048;-66
2022/09/05 22:40:21;;;;;;;6.38;2.95;;;;;;;;;;10100708;28;20107;-66
2022/09/05 22:45:15;;;;;;;8.07;3.72;;;;;;;;;;10114417;28;20080;-65
2022/09/05 22:50:09;;;;;;;2.95;2.75;;;;;;;;;;10118842;28;20049;-66
2022/09/05 22:55:03;;;;;;;4.95;3.45;;;;;;;;;;10123324;28;20128;-66
2022/09/05 22:59:57;;;;;;;5.15;4.50;;;;;;;;;;10150096;28;20055;-66
2022/09/05 23:04:52;;;;;;;5.05;3.55;;;;;;;;;;10131493;28;20155;-63
2022/09/05 23:09:46;;;;;;;4.45;3.20;;;;;;;;;;10136832;28;20448;-66
2022/09/05 23:14:39;;;;;;;7.05;3.03;;;;;;;;;;10145590;28;20513;-66
2022/09/05 23:19:33;;;;;;;5.00;2.70;;;;;;;;;;10124760;28;20499;-66
2022/09/05 23:24:27;;;;;;;7.22;2.67;;;;;;;;;;10151860;28;20605;-66
2022/09/05 23:29:21;;;;;;;3.45;2.60;;;;;;;;;;10150995;28;20125;-66
2022/09/05 23:34:15;;;;;;;4.00;2.45;;;;;;;;;;10141681;28;20114;-66
2022/09/05 23:39:10;;;;;;;4.63;2.47;;;;;;;;;;10135465;28;20049;-66
2022/09/05 23:44:04;;;;;;;2.53;2.22;;;;;;;;;;10150868;28;20084;-66
2022/09/05 23:48:57;;;;;;;6.03;3.03;;;;;;;;;;10111226;28;20492;-66
2022/09/05 23:53:51;;;;;;;3.55;2.65;;;;;;;;;;10128146;28;20053;-66
2022/09/05 23:58:46;;;;;;;5.70;4.25;;;;;;;;;;10127205;28;20526;-66
